Time;durP1;ratioP1;P1;durP2;ratioP2;P2;SDS_P1;SDS_P2;PMS_P1;PMS_P2;Temp;Humidity;BMP_temperature;BMP_pressure;BME280_temperature;BME280_humidity;BME280_pressure;Samples;Min_cycle;Max_cycle;Signal;HPM_P1;HPM_P2
2024/02/12 00:01:22;;;;;;;2.28;1.30;;;5.80;99.90;;;;;;5023564;28;20041;-41
2024/02/12 00:03:47;;;;;;;1.17;1.08;;;5.90;99.90;;;;;;5031507;28;20029;-41
2024/02/12 00:06:14;;;;;;;1.08;0.90;;;5.80;99.90;;;;;;5027927;28;20045;-41
2024/02/12 00:08:42;;;;;;;2.33;1.60;;;5.80;99.90;;;;;;5026608;28;20489;-40
2024/02/12 00:11:08;;;;;;;1.33;1.30;;;5.80;99.90;;;;;;5026460;28;20510;-42
2024/02/12 00:13:34;;;;;;;1.48;1.10;;;5.70;99.90;;;;;;5028733;28;20696;-41
2024/02/12 00:15:59;;;;;;;0.82;0.82;;;5.80;99.90;;;;;;5029211;28;20053;-41
2024/02/12 00:18:26;;;;;;;1.30;1.20;;;5.80;99.90;;;;;;5020262;28;20037;-41
2024/02/12 00:20:52;;;;;;;1.30;1.20;;;5.80;99.90;;;;;;5045485;28;20427;-39
2024/02/12 00:23:18;;;;;;;1.20;1.20;;;5.80;99.90;;;;;;5028225;28;20039;-40
2024/02/12 00:25:45;;;;;;;1.20;1.20;;;5.80;99.90;;;;;;5028004;28;20017;-41
2024/02/12 00:28:10;;;;;;;1.15;1.10;;;5.90;99.90;;;;;;5037143;28;20026;-41
2024/02/12 00:30:39;;;;;;;1.35;1.30;;;5.90;99.90;;;;;;5031769;28;20038;-38
2024/02/12 00:33:06;;;;;;;1.60;1.50;;;5.90;99.90;;;;;;5025708;28;20033;-41
2024/02/12 00:35:32;;;;;;;1.85;1.40;;;5.90;99.90;;;;;;5031683;28;20403;-41
2024/02/12 00:38:00;;;;;;;1.52;1.20;;;6.00;99.90;;;;;;5026348;28;20053;-37
2024/02/12 00:40:27;;;;;;;1.13;1.00;;;6.00;99.90;;;;;;5024316;28;20125;-39
2024/02/12 00:42:57;;;;;;;1.30;1.17;;;6.00;99.90;;;;;;5013575;28;20030;-38
2024/02/12 00:45:23;;;;;;;1.27;1.20;;;6.00;99.90;;;;;;5026214;28;20033;-40
2024/02/12 00:47:50;;;;;;;1.27;1.20;;;6.00;99.90;;;;;;5023606;28;20033;-41
2024/02/12 00:50:17;;;;;;;1.90;1.10;;;6.00;99.90;;;;;;5023887;28;20040;-41
2024/02/12 00:52:43;;;;;;;1.10;1.10;;;6.00;99.90;;;;;;5026314;28;20562;-41
2024/02/12 00:55:13;;;;;;;1.15;1.15;;;6.10;99.90;;;;;;5008070;28;20136;-39
2024/02/12 00:57:38;;;;;;;1.77;1.40;;;6.00;99.90;;;;;;5025180;28;20451;-39
2024/02/12 01:00:06;;;;;;;2.90;1.10;;;6.10;99.90;;;;;;5027334;28;20041;-41
2024/02/12 01:02:33;;;;;;;1.50;1.40;;;6.10;99.90;;;;;;5021731;28;20045;-39
2024/02/12 01:05:00;;;;;;;1.42;1.33;;;6.10;99.90;;;;;;5023315;28;20116;-37
2024/02/12 01:07:25;;;;;;;1.10;1.10;;;6.20;99.90;;;;;;5009693;28;20029;-41
2024/02/12 01:09:51;;;;;;;1.20;1.20;;;6.20;99.90;;;;;;5024202;28;20650;-40
2024/02/12 01:12:17;;;;;;;1.88;1.17;;;6.20;99.90;;;;;;5005152;28;20021;-37
2024/02/12 01:14:43;;;;;;;1.85;1.33;;;6.20;99.90;;;;;;5026056;28;20036;-40
2024/02/12 01:17:10;;;;;;;0.90;0.90;;;6.20;99.90;;;;;;5024722;28;20087;-41
2024/02/12 01:19:36;;;;;;;0.90;0.90;;;6.20;99.90;;;;;;5024011;28;20092;-40
2024/02/12 01:22:03;;;;;;;1.40;1.30;;;6.30;99.90;;;;;;5018949;28;20037;-38
2024/02/12 01:24:30;;;;;;;1.25;1.15;;;6.20;99.90;;;;;;5025496;28;20039;-40
2024/02/12 01:26:56;;;;;;;1.30;1.20;;;6.30;99.90;;;;;;5027665;28;20541;-39
2024/02/12 01:29:24;;;;;;;0.90;0.90;;;6.30;99.90;;;;;;5023950;28;20056;-40
2024/02/12 01:31:53;;;;;;;0.80;0.80;;;6.30;99.90;;;;;;5025200;28;20053;-39
2024/02/12 01:34:19;;;;;;;0.80;0.80;;;6.30;99.90;;;;;;5023218;28;20526;-41
2024/02/12 01:36:44;;;;;;;0.57;0.57;;;6.30;99.90;;;;;;5030413;28;20053;-39
2024/02/12 01:39:10;;;;;;;1.10;1.10;;;6.20;99.90;;;;;;5011104;28;20021;-40
2024/02/12 01:41:37;;;;;;;1.90;1.10;;;6.20;99.90;;;;;;5026772;28;20486;-41
2024/02/12 01:44:07;;;;;;;1.65;1.20;;;6.10;99.90;;;;;;5024818;28;20029;-39
2024/02/12 01:46:34;;;;;;;1.35;1.20;;;6.10;99.90;;;;;;5026559;28;20296;-39
2024/02/12 01:49:01;;;;;;;1.27;1.17;;;6.10;99.90;;;;;;5028454;28;20029;-40
2024/02/12 01:51:27;;;;;;;0.98;0.95;;;6.10;99.90;;;;;;5022786;28;20113;-42
2024/02/12 01:53:59;;;;;;;2.22;1.15;;;6.10;99.90;;;;;;5013461;28;20025;-39
2024/02/12 01:56:27;;;;;;;0.93;0.93;;;6.10;99.90;;;;;;5021501;28;20140;-41
2024/02/12 01:58:56;;;;;;;1.25;1.15;;;6.10;99.90;;;;;;5004613;28;20116;-37
2024/02/12 02:01:22;;;;;;;1.42;1.30;;;6.10;99.90;;;;;;5025089;28;20069;-40
2024/02/12 02:03:58;;;;;;;1.10;1.10;;;6.10;99.90;;;;;;5009125;28;20033;-41
2024/02/12 02:06:24;;;;;;;0.98;0.98;;;6.10;99.90;;;;;;5030100;28;20025;-36
2024/02/12 02:08:51;;;;;;;0.70;0.70;;;6.10;99.90;;;;;;5015821;28;20064;-42
2024/02/12 02:11:17;;;;;;;1.20;1.10;;;6.10;99.90;;;;;;5011211;28;20025;-42
2024/02/12 02:13:44;;;;;;;2.05;1.30;;;6.10;99.90;;;;;;5006446;28;20033;-42
2024/02/12 02:16:12;;;;;;;1.77;1.10;;;6.00;99.90;;;;;;5012132;28;20105;-40
2024/02/12 02:18:50;;;;;;;1.10;1.10;;;6.00;99.90;;;;;;5011554;28;20029;-40
2024/02/12 02:21:22;;;;;;;2.95;0.93;;;5.90;99.90;;;;;;5018023;28;20162;-42
2024/02/12 02:23:49;;;;;;;3.63;0.90;;;5.80;99.90;;;;;;5012482;28;20021;-41
2024/02/12 02:26:15;;;;;;;0.75;0.75;;;5.80;99.90;;;;;;5025260;28;20669;-43
2024/02/12 02:28:41;;;;;;;0.70;0.70;;;5.80;99.90;;;;;;5010238;28;20099;-40
2024/02/12 02:31:08;;;;;;;0.45;0.45;;;5.80;99.90;;;;;;5014637;28;20037;-40
2024/02/12 02:33:36;;;;;;;0.90;0.90;;;5.80;99.90;;;;;;4994029;28;20037;-40
2024/02/12 02:36:04;;;;;;;2.60;1.10;;;5.80;99.90;;;;;;5006216;28;20133;-41
2024/02/12 02:38:31;;;;;;;1.13;1.13;;;5.80;99.90;;;;;;5004440;28;20036;-43
2024/02/12 02:40:57;;;;;;;1.40;1.30;;;5.80;99.90;;;;;;5001145;28;20025;-42
2024/02/12 02:43:25;;;;;;;1.80;1.08;;;5.90;99.90;;;;;;5008039;28;20112;-42
2024/02/12 02:45:55;;;;;;;0.93;0.93;;;5.90;99.90;;;;;;5009131;28;20025;-36
2024/02/12 02:48:22;;;;;;;0.98;0.88;;;5.90;99.90;;;;;;5048499;28;20033;-41
2024/02/12 02:50:49;;;;;;;1.00;1.00;;;6.00;99.90;;;;;;5015665;28;20024;-40
2024/02/12 02:53:19;;;;;;;1.05;1.05;;;6.00;99.90;;;;;;5026184;28;20034;-43
2024/02/12 02:55:46;;;;;;;1.10;0.90;;;6.10;99.90;;;;;;5007512;28;20109;-39
2024/02/12 02:58:12;;;;;;;0.75;0.75;;;6.20;99.90;;;;;;5010468;28;20036;-41
2024/02/12 03:00:38;;;;;;;0.88;0.88;;;6.30;99.90;;;;;;5011709;28;20021;-43
2024/02/12 03:03:04;;;;;;;0.80;0.80;;;6.30;99.90;;;;;;5011149;28;20017;-38
2024/02/12 03:05:31;;;;;;;1.00;1.00;;;6.30;99.90;;;;;;5007373;28;20479;-41
2024/02/12 03:07:58;;;;;;;1.13;0.98;;;6.30;99.90;;;;;;5008220;28;20033;-35
2024/02/12 03:10:27;;;;;;;1.15;1.00;;;6.30;99.90;;;;;;5009355;28;20364;-38
2024/02/12 03:12:54;;;;;;;1.05;0.63;;;6.30;99.90;;;;;;5006936;28;20614;-41
2024/02/12 03:15:20;;;;;;;1.02;1.02;;;6.30;99.90;;;;;;5011146;28;20229;-39
2024/02/12 03:17:48;;;;;;;1.55;1.08;;;6.30;99.90;;;;;;5015587;28;20029;-41
2024/02/12 03:20:16;;;;;;;1.30;1.10;;;6.30;99.90;;;;;;5019754;28;20078;-41
2024/02/12 03:22:45;;;;;;;1.10;1.00;;;6.30;99.90;;;;;;5010718;28;20076;-42
2024/02/12 03:25:12;;;;;;;0.93;0.93;;;6.30;99.90;;;;;;5009901;28;20045;-38
2024/02/12 03:27:41;;;;;;;0.65;0.65;;;6.30;99.90;;;;;;5038405;28;20038;-40
2024/02/12 03:30:09;;;;;;;1.38;1.00;;;6.30;99.90;;;;;;5026024;28;20488;-36
2024/02/12 03:32:41;;;;;;;1.63;0.88;;;6.20;99.90;;;;;;5018021;28;20040;-41
2024/02/12 03:35:07;;;;;;;0.90;0.90;;;6.30;99.90;;;;;;5042467;28;20056;-37
2024/02/12 03:37:37;;;;;;;0.80;0.80;;;6.30;99.90;;;;;;5038050;28;20392;-39
2024/02/12 03:40:09;;;;;;;1.10;0.70;;;6.30;99.90;;;;;;5007675;28;20057;-38
2024/02/12 03:42:36;;;;;;;1.08;1.08;;;6.30;99.90;;;;;;5007301;28;20057;-41
2024/02/12 03:45:05;;;;;;;1.05;1.02;;;6.30;99.90;;;;;;5008881;28;20056;-40
2024/02/12 03:47:39;;;;;;;0.80;0.80;;;6.30;99.90;;;;;;5013169;28;20029;-40
2024/02/12 04:01:17;;;;;;;1.10;1.10;;;6.10;99.90;;;;;;5018135;28;20048;-42
2024/02/12 04:03:52;;;;;;;0.98;0.93;;;6.00;99.90;;;;;;5008586;28;20025;-39
2024/02/12 04:06:19;;;;;;;0.90;0.90;;;6.00;99.90;;;;;;5022647;28;20438;-37
2024/02/12 04:08:47;;;;;;;1.00;1.00;;;6.00;99.90;;;;;;5006999;28;20029;-41
2024/02/12 04:11:13;;;;;;;0.70;0.70;;;6.00;99.90;;;;;;5024009;28;20510;-36
2024/02/12 04:13:39;;;;;;;3.03;1.25;;;6.00;99.90;;;;;;5006518;28;20068;-34
2024/02/12 04:16:09;;;;;;;0.77;0.77;;;6.00;99.90;;;;;;5025623;28;20794;-33
2024/02/12 04:18:34;;;;;;;0.80;0.73;;;6.00;99.90;;;;;;5027085;28;20095;-33
2024/02/12 04:21:08;;;;;;;0.82;0.82;;;6.00;99.90;;;;;;5024472;28;20033;-35
2024/02/12 04:23:35;;;;;;;1.00;1.00;;;6.00;99.90;;;;;;5018684;28;20033;-36
2024/02/12 04:26:01;;;;;;;0.88;0.88;;;6.00;99.90;;;;;;5025041;28;20021;-35
2024/02/12 04:28:27;;;;;;;0.98;0.98;;;6.00;99.90;;;;;;5024402;28;20032;-33
2024/02/12 04:30:54;;;;;;;0.95;0.80;;;6.00;99.90;;;;;;5019419;28;20037;-37
2024/02/12 04:33:20;;;;;;;0.90;0.90;;;6.00;99.90;;;;;;5024645;28;20040;-35
2024/02/12 04:35:45;;;;;;;0.73;0.73;;;6.00;99.90;;;;;;5017599;28;20072;-33
2024/02/12 04:38:11;;;;;;;0.90;0.82;;;6.00;99.90;;;;;;5020938;28;20057;-33
2024/02/12 04:40:37;;;;;;;0.80;0.80;;;6.00;99.90;;;;;;5022836;28;20094;-37
2024/02/12 04:43:04;;;;;;;1.48;0.90;;;6.00;99.90;;;;;;5019919;28;20736;-35
2024/02/12 04:45:30;;;;;;;0.90;0.90;;;6.00;99.90;;;;;;5025291;28;20080;-34
2024/02/12 04:47:56;;;;;;;2.53;1.00;;;6.00;99.90;;;;;;5021058;28;20185;-38
2024/02/12 04:50:23;;;;;;;1.17;1.05;;;6.00;99.90;;;;;;5023130;28;21069;-33
2024/02/12 04:52:49;;;;;;;0.70;0.70;;;6.00;99.90;;;;;;5019496;28;20026;-33
2024/02/12 04:55:15;;;;;;;0.88;0.88;;;6.00;99.90;;;;;;5023243;28;20183;-35
2024/02/12 04:57:41;;;;;;;0.90;0.90;;;6.00;99.90;;;;;;5022260;28;20079;-34
2024/02/12 05:00:10;;;;;;;0.77;0.77;;;5.90;99.90;;;;;;5023718;28;20684;-38
2024/02/12 05:02:37;;;;;;;0.68;0.68;;;5.90;99.90;;;;;;5022430;28;20441;-32
2024/02/12 05:05:05;;;;;;;0.82;0.82;;;5.90;99.90;;;;;;5017446;28;20033;-33
2024/02/12 05:07:31;;;;;;;0.80;0.80;;;5.90;99.90;;;;;;5016906;28;20491;-34
2024/02/12 05:09:56;;;;;;;1.02;0.82;;;5.90;99.90;;;;;;5021894;28;20034;-34
2024/02/12 05:12:22;;;;;;;0.95;0.95;;;5.90;99.90;;;;;;5021002;28;20033;-34
2024/02/12 05:14:48;;;;;;;0.95;0.80;;;5.90;99.90;;;;;;5021624;28;20124;-33
2024/02/12 05:17:23;;;;;;;0.90;0.90;;;5.90;99.90;;;;;;5024735;28;20388;-34
2024/02/12 05:22:34;;;;;;;0.70;0.70;;;5.80;99.90;;;;;;5023632;28;20086;-34
2024/02/12 05:25:00;;;;;;;1.17;0.88;;;5.80;99.90;;;;;;5022603;28;20083;-32
2024/02/12 05:27:26;;;;;;;0.57;0.45;;;5.80;99.90;;;;;;5019882;28;20025;-35
2024/02/12 05:29:52;;;;;;;0.80;0.80;;;5.70;99.90;;;;;;5021621;28;20033;-37
2024/02/12 05:32:20;;;;;;;0.80;0.80;;;5.80;99.90;;;;;;5024068;28;20030;-35
2024/02/12 05:34:49;;;;;;;;;;;5.80;99.90;;;;;;5006124;28;20136;-33
2024/02/12 05:37:15;;;;;;;0.47;0.47;;;5.80;99.90;;;;;;5021558;28;19920;-35
2024/02/12 05:39:42;;;;;;;0.40;0.40;;;5.80;99.90;;;;;;5022191;28;20490;-33
2024/02/12 05:42:07;;;;;;;2.17;0.63;;;5.80;99.90;;;;;;5022125;28;20075;-34
2024/02/12 05:44:36;;;;;;;1.60;0.90;;;5.90;99.90;;;;;;5038551;28;20544;-37
2024/02/12 05:47:08;;;;;;;0.88;0.88;;;5.90;99.90;;;;;;5020248;28;20038;-32
2024/02/12 05:49:34;;;;;;;1.10;1.10;;;5.90;99.90;;;;;;5007142;28;20389;-33
2024/02/12 05:52:02;;;;;;;1.00;0.93;;;5.90;99.90;;;;;;5029931;28;20054;-33
2024/02/12 05:54:29;;;;;;;0.80;0.80;;;6.00;99.90;;;;;;5023018;28;20037;-32
2024/02/12 05:56:55;;;;;;;1.02;1.02;;;6.00;99.90;;;;;;5022324;28;20465;-36
2024/02/12 05:59:21;;;;;;;1.10;1.00;;;6.00;99.90;;;;;;5021838;28;20106;-34
2024/02/12 06:01:46;;;;;;;1.48;0.90;;;6.00;99.90;;;;;;5024749;28;20045;-33
2024/02/12 06:04:12;;;;;;;0.90;0.90;;;6.00;99.90;;;;;;5023493;28;20135;-33
2024/02/12 06:06:39;;;;;;;0.82;0.82;;;6.00;99.90;;;;;;5021854;28;20064;-34
2024/02/12 06:09:05;;;;;;;0.68;0.68;;;6.00;99.90;;;;;;5020719;28;20091;-32
2024/02/12 06:11:31;;;;;;;0.75;0.75;;;6.00;99.90;;;;;;5021221;28;20026;-32
2024/02/12 06:13:57;;;;;;;0.93;0.90;;;6.00;99.90;;;;;;5024980;28;20482;-32
2024/02/12 06:16:23;;;;;;;0.73;0.73;;;6.00;99.90;;;;;;5026470;28;20126;-34
2024/02/12 06:18:51;;;;;;;1.08;0.80;;;6.00;99.90;;;;;;5018380;28;20076;-31
2024/02/12 06:21:17;;;;;;;1.30;0.90;;;5.90;99.90;;;;;;5022883;28;20021;-32
2024/02/12 06:23:43;;;;;;;1.05;0.85;;;6.00;99.90;;;;;;5021363;28;20450;-33
2024/02/12 06:26:10;;;;;;;0.98;0.90;;;6.00;99.90;;;;;;5022640;28;20026;-35
2024/02/12 06:28:36;;;;;;;1.15;1.05;;;6.00;99.90;;;;;;5006783;28;20128;-34
2024/02/12 06:31:02;;;;;;;0.95;0.95;;;6.00;99.90;;;;;;5021023;28;20034;-41
2024/02/12 06:33:28;;;;;;;0.80;0.80;;;6.00;99.90;;;;;;5025010;28;20060;-41
2024/02/12 06:35:56;;;;;;;2.05;0.80;;;6.00;99.90;;;;;;5022485;28;20494;-38
2024/02/12 06:38:22;;;;;;;1.20;1.08;;;6.00;99.90;;;;;;5022723;28;20040;-40
2024/02/12 06:40:48;;;;;;;0.90;0.90;;;6.00;99.90;;;;;;5022103;28;20029;-38
2024/02/12 06:43:14;;;;;;;1.02;0.90;;;6.00;99.90;;;;;;5020995;28;20100;-41
2024/02/12 06:45:40;;;;;;;0.55;0.55;;;6.00;99.90;;;;;;5021376;28;20385;-40
2024/02/12 06:48:06;;;;;;;1.95;1.25;;;6.00;99.90;;;;;;5020585;28;20083;-40
2024/02/12 06:50:32;;;;;;;1.25;1.10;;;6.10;99.90;;;;;;5019607;28;20026;-39
2024/02/12 06:52:57;;;;;;;1.23;1.13;;;6.00;99.90;;;;;;5024421;28;20032;-37
2024/02/12 06:55:23;;;;;;;0.75;0.68;;;6.00;99.90;;;;;;5025745;28;20025;-41
2024/02/12 06:57:48;;;;;;;2.90;1.05;;;5.90;99.90;;;;;;5024990;28;20071;-39
2024/02/12 07:00:19;;;;;;;0.90;0.90;;;5.90;99.90;;;;;;5019377;28;20044;-38
2024/02/12 07:02:46;;;;;;;2.45;1.50;;;5.90;99.90;;;;;;5024151;28;20040;-40
2024/02/12 07:05:14;;;;;;;0.85;0.85;;;5.80;99.90;;;;;;5020166;28;20065;-41
2024/02/12 07:07:40;;;;;;;0.70;0.70;;;5.90;99.90;;;;;;5023273;28;20052;-40
2024/02/12 07:10:06;;;;;;;0.65;0.65;;;5.80;99.90;;;;;;5021695;28;20026;-39
2024/02/12 07:12:33;;;;;;;1.25;1.00;;;5.90;99.90;;;;;;5006005;28;20037;-40
2024/02/12 07:14:59;;;;;;;0.85;0.73;;;5.90;99.90;;;;;;5022773;28;20021;-38
2024/02/12 07:17:24;;;;;;;1.00;0.82;;;5.90;99.90;;;;;;5023458;28;20088;-40
2024/02/12 07:19:50;;;;;;;1.00;1.00;;;6.00;99.90;;;;;;5022978;28;20025;-40
2024/02/12 07:22:19;;;;;;;1.10;1.00;;;6.00;99.90;;;;;;5028802;28;20530;-38
2024/02/12 07:24:49;;;;;;;1.17;1.08;;;6.00;99.90;;;;;;5019353;28;20040;-39
2024/02/12 07:27:15;;;;;;;1.23;0.90;;;6.10;99.90;;;;;;5023750;28;20493;-40
2024/02/12 07:29:41;;;;;;;0.75;0.75;;;6.10;99.90;;;;;;5013439;28;20029;-40
2024/02/12 07:32:07;;;;;;;0.70;0.70;;;6.20;99.90;;;;;;5015781;28;20033;-40
2024/02/12 07:34:33;;;;;;;0.95;0.95;;;6.20;99.90;;;;;;5031588;28;20050;-41
2024/02/12 07:36:58;;;;;;;1.27;1.17;;;6.20;99.90;;;;;;5024074;28;20033;-37
2024/02/12 07:39:24;;;;;;;1.77;1.10;;;6.20;99.90;;;;;;5021394;28;20398;-40
2024/02/12 07:41:51;;;;;;;0.80;0.80;;;6.20;99.90;;;;;;5024790;28;20088;-32
2024/02/12 07:44:16;;;;;;;3.55;0.90;;;6.20;99.90;;;;;;5020032;28;20446;-36
2024/02/12 07:46:43;;;;;;;0.80;0.80;;;6.30;99.90;;;;;;5022527;28;20112;-33
2024/02/12 07:49:10;;;;;;;0.85;0.85;;;6.30;99.90;;;;;;5024267;28;20036;-36
2024/02/12 07:51:39;;;;;;;2.75;1.00;;;6.30;99.90;;;;;;5022544;28;20415;-33
2024/02/12 07:54:05;;;;;;;2.17;0.73;;;6.30;99.90;;;;;;5027577;28;20494;-33
2024/02/12 07:56:30;;;;;;;0.98;0.98;;;6.30;99.90;;;;;;5028494;28;20087;-33
2024/02/12 07:58:56;;;;;;;1.30;1.30;;;6.30;99.90;;;;;;5021131;28;20036;-34
2024/02/12 08:01:21;;;;;;;2.80;1.27;;;6.30;99.90;;;;;;5026164;28;20125;-38
2024/02/12 08:03:48;;;;;;;0.95;0.90;;;6.30;99.90;;;;;;5017779;28;20026;-33
2024/02/12 08:06:15;;;;;;;1.10;1.10;;;6.30;99.90;;;;;;5018058;28;20799;-35
2024/02/12 08:08:41;;;;;;;2.55;1.30;;;6.30;99.90;;;;;;5018525;28;20030;-35
2024/02/12 08:11:08;;;;;;;1.88;1.00;;;6.30;99.90;;;;;;5017345;28;20045;-33
2024/02/12 08:13:35;;;;;;;1.15;1.08;;;6.40;99.90;;;;;;5013592;28;20080;-35
2024/02/12 08:16:01;;;;;;;0.80;0.80;;;6.40;99.90;;;;;;5022334;28;20033;-34
2024/02/12 08:18:28;;;;;;;1.20;1.10;;;6.40;99.90;;;;;;5021784;28;20034;-35
2024/02/12 08:20:54;;;;;;;1.52;1.38;;;6.40;99.90;;;;;;5023671;28;20492;-39
2024/02/12 08:23:21;;;;;;;0.70;0.70;;;6.40;99.90;;;;;;5025952;28;20033;-34
2024/02/12 08:25:46;;;;;;;0.77;0.77;;;6.40;99.90;;;;;;5031566;28;20116;-33
2024/02/12 08:28:12;;;;;;;1.55;1.05;;;6.40;99.90;;;;;;5024817;28;20108;-33
2024/02/12 08:30:37;;;;;;;2.22;1.65;;;6.40;99.90;;;;;;5024466;28;20044;-33
2024/02/12 08:33:04;;;;;;;0.77;0.77;;;6.40;99.90;;;;;;5029206;28;20644;-37
2024/02/12 08:35:29;;;;;;;1.40;1.30;;;6.40;99.90;;;;;;5030030;28;20080;-34
2024/02/12 08:37:55;;;;;;;1.00;1.00;;;6.50;99.90;;;;;;5027237;28;20084;-35
2024/02/12 08:40:22;;;;;;;1.00;1.00;;;6.50;99.90;;;;;;5027755;28;20029;-33
2024/02/12 08:42:50;;;;;;;0.70;0.70;;;6.40;99.90;;;;;;5025448;28;20036;-38
2024/02/12 08:45:16;;;;;;;1.13;1.13;;;6.50;99.90;;;;;;5026934;28;20040;-33
2024/02/12 08:47:41;;;;;;;1.42;1.20;;;6.50;99.90;;;;;;5027921;28;20053;-35
2024/02/12 08:50:10;;;;;;;1.30;1.20;;;6.50;99.90;;;;;;5021451;28;20021;-40
2024/02/12 08:52:38;;;;;;;1.00;0.93;;;6.50;99.90;;;;;;5022641;28;20025;-33
2024/02/12 08:55:15;;;;;;;1.00;1.00;;;6.50;99.90;;;;;;5024550;28;20033;-33
2024/02/12 08:57:41;;;;;;;1.50;1.20;;;6.50;99.90;;;;;;5027154;28;20026;-32
2024/02/12 09:00:11;;;;;;;1.38;1.27;;;6.50;99.90;;;;;;5024125;28;20036;-33
2024/02/12 09:02:37;;;;;;;1.42;1.33;;;6.60;99.90;;;;;;5029454;28;20032;-33
2024/02/12 09:05:05;;;;;;;1.42;1.20;;;6.60;99.90;;;;;;5023127;28;20105;-34
2024/02/12 09:07:30;;;;;;;1.60;1.10;;;6.70;99.90;;;;;;5042261;28;20017;-33
2024/02/12 09:09:56;;;;;;;1.17;1.15;;;6.60;99.90;;;;;;5029317;28;20371;-34
2024/02/12 09:12:23;;;;;;;1.15;1.15;;;6.60;99.90;;;;;;5032257;28;20095;-35
2024/02/12 09:14:48;;;;;;;0.90;0.90;;;6.70;99.90;;;;;;5023919;28;20391;-35
2024/02/12 09:17:15;;;;;;;1.27;1.17;;;6.70;99.90;;;;;;5030276;28;20090;-33
2024/02/12 09:19:41;;;;;;;0.88;0.80;;;6.70;99.90;;;;;;5023446;28;20045;-36
2024/02/12 09:22:09;;;;;;;0.98;0.98;;;6.80;99.90;;;;;;5023239;28;20041;-33
2024/02/12 09:24:37;;;;;;;0.80;0.80;;;7.10;99.90;;;;;;5025693;28;20121;-37
2024/02/12 09:27:02;;;;;;;1.48;1.38;;;7.20;99.90;;;;;;5028077;28;20473;-34
2024/02/12 09:29:28;;;;;;;2.78;1.52;;;7.30;99.90;;;;;;5025508;28;20025;-33
2024/02/12 09:31:54;;;;;;;1.48;1.38;;;7.40;99.90;;;;;;5027985;28;20029;-32
2024/02/12 09:34:19;;;;;;;1.40;1.30;;;7.50;99.90;;;;;;5024415;28;20454;-35
2024/02/12 09:36:46;;;;;;;2.28;1.42;;;7.60;99.90;;;;;;5028658;28;20025;-35
2024/02/12 09:39:12;;;;;;;1.05;1.05;;;7.70;99.90;;;;;;5027982;28;20518;-35
2024/02/12 09:41:37;;;;;;;1.85;1.70;;;7.70;99.90;;;;;;5034489;28;20025;-34
2024/02/12 09:44:07;;;;;;;1.95;1.60;;;7.60;99.90;;;;;;5030936;28;20060;-33
2024/02/12 09:46:36;;;;;;;1.23;1.23;;;7.60;99.90;;;;;;5030674;28;20129;-36
2024/02/12 09:49:03;;;;;;;3.63;1.95;;;7.80;99.90;;;;;;5031185;28;20506;-33
2024/02/12 09:51:30;;;;;;;1.60;1.50;;;7.90;99.90;;;;;;5026344;28;20042;-32
2024/02/12 09:53:57;;;;;;;1.77;1.67;;;7.90;99.90;;;;;;5027196;28;20398;-37
2024/02/12 09:56:24;;;;;;;1.90;1.80;;;8.00;99.90;;;;;;5022413;28;20029;-33
2024/02/12 09:58:50;;;;;;;0.80;0.80;;;8.20;99.90;;;;;;5032540;28;20021;-33
2024/02/12 10:01:16;;;;;;;1.00;0.90;;;8.30;99.90;;;;;;5007449;28;20059;-35
2024/02/12 10:03:44;;;;;;;2.08;1.35;;;8.30;99.90;;;;;;5029709;28;20489;-32
2024/02/12 10:06:12;;;;;;;;;;;8.20;99.90;;;;;;5025278;28;20109;-32
2024/02/12 10:08:38;;;;;;;1.85;1.48;;;8.30;99.90;;;;;;5005834;28;19920;-31
2024/02/12 10:11:06;;;;;;;1.42;1.33;;;8.30;99.90;;;;;;5023057;28;20034;-32
2024/02/12 10:13:32;;;;;;;1.15;1.13;;;8.50;99.90;;;;;;5024916;28;20498;-32
2024/02/12 10:15:58;;;;;;;1.25;1.15;;;8.60;99.90;;;;;;5027232;28;20042;-32
2024/02/12 10:18:24;;;;;;;1.25;1.15;;;8.50;99.90;;;;;;5020657;28;20041;-34
2024/02/12 10:20:49;;;;;;;2.03;1.35;;;8.70;99.90;;;;;;5027778;28;20028;-31
2024/02/12 10:23:16;;;;;;;1.63;0.98;;;8.60;99.90;;;;;;5034851;28;20122;-31
2024/02/12 10:25:45;;;;;;;1.55;1.30;;;8.60;99.90;;;;;;5024706;28;20493;-32
2024/02/12 10:28:18;;;;;;;2.55;1.70;;;8.40;99.90;;;;;;5019907;28;20033;-32
2024/02/12 10:30:46;;;;;;;1.80;1.70;;;8.20;99.90;;;;;;5026030;28;20513;-33
2024/02/12 10:33:13;;;;;;;2.03;1.40;;;8.30;99.90;;;;;;5022886;28;20025;-32
2024/02/12 10:35:43;;;;;;;1.20;1.17;;;8.30;99.90;;;;;;5023543;28;20167;-34
2024/02/12 10:38:12;;;;;;;1.73;1.63;;;8.30;99.90;;;;;;5025051;28;20029;-34
2024/02/12 10:41:03;;;;;;;1.92;1.40;;;8.30;99.90;;;;;;5033471;28;20100;-31
2024/02/12 10:43:31;;;;;;;2.03;1.60;;;8.20;99.90;;;;;;5029047;28;20025;-33
2024/02/12 10:45:58;;;;;;;1.95;1.70;;;8.10;99.90;;;;;;5027165;28;20475;-34
2024/02/12 10:48:24;;;;;;;2.30;1.40;;;8.00;99.90;;;;;;5026930;28;20030;-31
2024/02/12 10:50:53;;;;;;;1.15;1.15;;;8.00;99.90;;;;;;5029526;28;20082;-31
2024/02/12 10:53:18;;;;;;;;;;;8.00;99.90;;;;;;5033132;28;20020;-31
2024/02/12 10:55:45;;;;;;;2.25;1.25;;;8.00;99.90;;;;;;5035314;28;19908;-31
2024/02/12 10:58:12;;;;;;;2.88;1.63;;;8.00;99.90;;;;;;5030494;28;20044;-32
2024/02/12 11:00:40;;;;;;;2.03;1.63;;;8.10;99.90;;;;;;5020893;28;20033;-35
2024/02/12 11:03:06;;;;;;;1.70;1.20;;;8.10;99.90;;;;;;5026076;28;20029;-32
2024/02/12 11:05:38;;;;;;;2.22;1.48;;;8.20;99.90;;;;;;5027457;28;20501;-32
2024/02/12 11:08:10;;;;;;;1.83;1.25;;;8.20;99.90;;;;;;5024499;28;20095;-32
2024/02/12 11:10:38;;;;;;;2.17;1.50;;;8.20;99.90;;;;;;5027903;28;20105;-38
2024/02/12 11:13:05;;;;;;;2.05;1.30;;;8.40;99.90;;;;;;5021899;28;20040;-40
2024/02/12 11:15:31;;;;;;;1.33;1.02;;;8.30;99.90;;;;;;5023756;28;20038;-40
2024/02/12 11:17:57;;;;;;;1.55;1.30;;;8.40;99.90;;;;;;5017270;28;20057;-39
2024/02/12 11:20:25;;;;;;;1.48;1.30;;;8.40;99.90;;;;;;5023499;28;20075;-40
2024/02/12 11:22:52;;;;;;;0.93;0.93;;;8.40;99.90;;;;;;5028413;28;20398;-37
2024/02/12 11:25:18;;;;;;;1.88;1.70;;;8.50;99.90;;;;;;5021827;28;20033;-40
2024/02/12 11:27:58;;;;;;;1.27;1.25;;;8.50;99.90;;;;;;5009927;28;20029;-40
2024/02/12 11:30:25;;;;;;;1.75;1.65;;;8.50;99.90;;;;;;5027725;28;20039;-40
2024/02/12 11:32:50;;;;;;;1.17;1.00;;;8.50;99.90;;;;;;5031134;28;20033;-38
2024/02/12 11:35:18;;;;;;;1.48;1.38;;;8.40;99.90;;;;;;5021756;28;20097;-39
2024/02/12 11:37:55;;;;;;;1.50;1.40;;;8.30;99.90;;;;;;5006792;28;20032;-39
2024/02/12 11:40:21;;;;;;;1.50;1.50;;;8.40;99.90;;;;;;5016805;28;20033;-39
2024/02/12 11:42:50;;;;;;;1.30;0.82;;;8.40;99.90;;;;;;5013950;28;20128;-39
2024/02/12 11:45:24;;;;;;;1.00;0.90;;;8.50;99.90;;;;;;5016415;28;20097;-38
2024/02/12 11:47:50;;;;;;;1.30;1.20;;;8.50;99.90;;;;;;5012490;28;20112;-39
2024/02/12 11:50:27;;;;;;;0.85;0.85;;;8.60;99.90;;;;;;5015370;28;20039;-36
2024/02/12 11:52:53;;;;;;;1.10;1.10;;;8.60;99.90;;;;;;5002795;28;20025;-39
2024/02/12 11:55:19;;;;;;;1.27;1.17;;;8.70;99.90;;;;;;5018689;28;20029;-39
2024/02/12 11:57:46;;;;;;;1.48;1.38;;;8.70;99.90;;;;;;5025728;28;20124;-39
2024/02/12 12:00:19;;;;;;;1.90;1.45;;;8.80;99.90;;;;;;5022690;28;20018;-41
2024/02/12 12:02:55;;;;;;;0.50;0.50;;;8.90;99.90;;;;;;5020460;28;20033;-40
2024/02/12 12:05:25;;;;;;;1.88;1.50;;;9.00;99.90;;;;;;5015524;28;20121;-37
2024/02/12 12:07:52;;;;;;;1.50;0.95;;;9.20;99.90;;;;;;5020695;28;20026;-35
2024/02/12 12:10:25;;;;;;;1.15;1.15;;;9.20;99.90;;;;;;5017724;28;20025;-36
2024/02/12 12:12:51;;;;;;;1.42;1.33;;;9.20;99.90;;;;;;5021952;28;20041;-37
2024/02/12 12:15:18;;;;;;;1.80;1.33;;;9.00;99.90;;;;;;5024580;28;20561;-36
2024/02/12 12:17:46;;;;;;;1.70;1.60;;;8.90;99.90;;;;;;5023710;28;20579;-38
2024/02/12 12:20:12;;;;;;;1.20;1.08;;;8.90;99.90;;;;;;5024025;28;20034;-39
2024/02/12 12:22:44;;;;;;;0.57;0.57;;;8.90;99.90;;;;;;5025731;28;20045;-40
2024/02/12 12:25:13;;;;;;;0.85;0.85;;;9.00;99.90;;;;;;5021809;28;20079;-40
2024/02/12 12:27:39;;;;;;;1.23;0.60;;;9.10;99.90;;;;;;5031313;28;20017;-37
2024/02/12 12:30:13;;;;;;;1.50;1.13;;;9.20;99.90;;;;;;5006859;28;20075;-40
2024/02/12 12:32:40;;;;;;;1.10;1.00;;;9.20;99.90;;;;;;5021330;28;20459;-40
2024/02/12 12:35:07;;;;;;;2.30;0.85;;;9.20;99.90;;;;;;5024754;28;20051;-39
2024/02/12 12:37:33;;;;;;;1.83;1.20;;;9.20;99.90;;;;;;5029458;28;20026;-38
2024/02/12 12:39:59;;;;;;;1.10;1.00;;;9.30;99.90;;;;;;5023453;28;20132;-39
2024/02/12 12:42:25;;;;;;;1.30;1.20;;;9.30;99.90;;;;;;5014921;28;20116;-40
2024/02/12 12:44:51;;;;;;;1.20;0.90;;;9.40;99.90;;;;;;5024496;28;21086;-39
2024/02/12 12:47:18;;;;;;;1.98;1.40;;;9.30;99.90;;;;;;5011082;28;20112;-41
2024/02/12 12:49:44;;;;;;;2.17;1.45;;;9.30;99.90;;;;;;5024023;28;20037;-39
2024/02/12 12:52:10;;;;;;;1.25;1.10;;;9.30;99.90;;;;;;5027406;28;20041;-40
2024/02/12 12:54:38;;;;;;;2.17;1.17;;;9.20;99.90;;;;;;5027900;28;20029;-38
2024/02/12 12:57:04;;;;;;;;;;;9.10;99.90;;;;;;5027766;28;20541;-39
2024/02/12 12:59:29;;;;;;;1.75;1.30;;;9.00;99.90;;;;;;5013437;28;19915;-40
2024/02/12 13:01:55;;;;;;;1.10;0.95;;;9.00;99.90;;;;;;5031144;28;20038;-39
2024/02/12 13:04:21;;;;;;;3.03;1.20;;;8.80;99.90;;;;;;5030294;28;20029;-41
2024/02/12 13:06:47;;;;;;;3.13;0.80;;;8.70;99.90;;;;;;5026998;28;20052;-41
2024/02/12 13:09:17;;;;;;;0.90;0.90;;;8.60;99.90;;;;;;5031925;28;20152;-39
2024/02/12 13:11:43;;;;;;;1.00;0.90;;;8.50;99.90;;;;;;5024510;28;20521;-40